View the latest observations near Atlantic Tropical Depression Edouard, Central Pacific Hurricane Lowell, East Pacific Hurricane Karina and East Pacific Tropical Storm Marie.
Station MROS1 - Search and Rescue Data
Average surface winds - six hour block.
| Date (UTC) | Average Wind Dir (True) |
Average Wind Spd (Knots) |
Wind Obs |
Average Seas (Feet) |
Wave Obs |
Air Temp. (Degrees F.) |
Air Temp. Obs |
Water Temp. (Degrees F.) |
Water Temp. Obs |
|---|---|---|---|---|---|---|---|---|---|
| 2026-09-02 0000Z | 174 | 8 | 51 | - | 0 | 83 | 36 | 86 | 51 |
| 2026-09-01 1800Z | 148 | 7 | 60 | - | 0 | 84 | 39 | 85 | 60 |
| 2026-09-01 1200Z | 333 | 5 | 60 | - | 0 | 78 | 36 | 84 | 60 |
| 2026-09-01 0600Z | 264 | 1 | 60 | - | 0 | 79 | 37 | 84 | 60 |
| 2026-09-01 0000Z | 144 | 6 | 53 | - | 0 | 82 | 32 | 85 | 53 |
| 2026-08-31 1800Z | 127 | 7 | 60 | - | 0 | 83 | 39 | 84 | 60 |
| 2026-08-31 1200Z | 17 | 4 | 60 | - | 0 | 78 | 33 | 83 | 60 |
| 2026-08-31 0600Z | 56 | 2 | 57 | - | 0 | 79 | 52 | 83 | 57 |
| 2026-08-31 0000Z | 106 | 4 | 57 | - | 0 | 81 | 39 | 84 | 57 |
| 2026-08-30 1800Z | 93 | 7 | 60 | - | 0 | 81 | 45 | 83 | 60 |
| 2026-08-30 1200Z | 37 | 6 | 58 | - | 0 | 77 | 37 | 83 | 60 |
| 2026-08-30 0600Z | 21 | 5 | 60 | - | 0 | 77 | 42 | 84 | 60 |
| 2026-08-30 0000Z | 128 | 8 | 57 | - | 0 | 81 | 42 | 84 | 57 |
| 2026-08-29 1800Z | 151 | 4 | 58 | - | 0 | 80 | 45 | 84 | 60 |
| 2026-08-29 1200Z | 267 | 2 | 60 | - | 0 | 77 | 42 | 83 | 60 |
| 2026-08-29 0600Z | 231 | 4 | 60 | - | 0 | 79 | 40 | 84 | 60 |
| 2026-08-29 0000Z | 226 | 4 | 57 | - | 0 | 80 | 27 | 84 | 57 |
| 2026-08-28 1800Z | 204 | 7 | 58 | - | 0 | 80 | 27 | 84 | 60 |
| 2026-08-28 1200Z | 279 | 4 | 60 | - | 0 | 77 | 30 | 84 | 60 |
| 2026-08-28 0600Z | 253 | 4 | 60 | - | 0 | 79 | 39 | 84 | 60 |
| 2026-08-28 0000Z | 220 | 9 | 57 | - | 0 | 81 | 30 | 85 | 57 |
| 2026-08-27 1800Z | 176 | 9 | 59 | - | 0 | 80 | 38 | 85 | 59 |
| 2026-08-27 1200Z | 235 | 2 | 60 | - | 0 | 77 | 33 | 84 | 60 |
| 2026-08-27 0600Z | 207 | 9 | 60 | - | 0 | 80 | 27 | 84 | 60 |
| 2026-08-27 0000Z | 175 | 10 | 57 | - | 0 | 82 | 23 | 84 | 52 |
| 2026-08-26 1800Z | 132 | 7 | 60 | - | 0 | 82 | 33 | 84 | 60 |
| 2026-08-26 1200Z | 130 | 5 | 60 | - | 0 | 81 | 37 | 84 | 57 |
| 2026-08-26 0600Z | 115 | 7 | 60 | - | 0 | 83 | 28 | 84 | 60 |
| 2026-08-26 0000Z | 126 | 10 | 60 | - | 0 | 84 | 31 | 84 | 60 |
| 2026-08-25 1800Z | 115 | 8 | 60 | - | 0 | 83 | 27 | 84 | 60 |
| 2026-08-25 1200Z | 359 | 6 | 60 | - | 0 | 77 | 24 | 82 | 60 |
| 2026-08-25 0600Z | 1 | 3 | 60 | - | 0 | 80 | 24 | 83 | 60 |
| 2026-08-25 0000Z | 231 | 4 | 60 | - | 0 | 84 | 30 | 83 | 60 |
| 2026-08-24 1800Z | 189 | 9 | 57 | - | 0 | 82 | 30 | 84 | 60 |
| 2026-08-24 1200Z | 207 | 8 | 60 | - | 0 | 82 | 33 | 83 | 60 |
| 2026-08-24 0600Z | 207 | 11 | 60 | - | 0 | 82 | 45 | 83 | 60 |
| 2026-08-24 0000Z | 207 | 11 | 60 | - | 0 | 83 | 42 | 84 | 60 |
| 2026-08-23 1800Z | 193 | 9 | 57 | - | 0 | 82 | 39 | 84 | 60 |
| 2026-08-23 1200Z | 250 | 4 | 60 | - | 0 | 76 | 45 | 83 | 60 |
| 2026-08-23 0600Z | 282 | 4 | 60 | - | 0 | 75 | 45 | 83 | 60 |
| 2026-08-23 0000Z | 214 | 7 | 57 | - | 0 | 78 | 39 | 83 | 57 |
| 2026-08-22 1800Z | 184 | 9 | 60 | - | 0 | 82 | 39 | 83 | 60 |
| 2026-08-22 1200Z | 189 | 9 | 60 | - | 0 | 81 | 33 | 83 | 57 |
| 2026-08-22 0600Z | 102 | 12 | 60 | - | 0 | 78 | 36 | 83 | 60 |
| 2026-08-22 0000Z | 36 | 5 | 60 | - | 0 | 79 | 30 | 84 | 60 |
| 2026-08-21 1800Z | 194 | 16 | 60 | - | 0 | 85 | 30 | 84 | 60 |
| 2026-08-21 1200Z | 214 | 7 | 60 | - | 0 | 84 | 42 | 83 | 60 |
| 2026-08-21 0600Z | 213 | 8 | 60 | - | 0 | 84 | 45 | 84 | 60 |
| 2026-08-21 0000Z | 187 | 12 | 57 | - | 0 | 87 | 42 | 87 | 57 |
| 2026-08-20 1800Z | 168 | 8 | 60 | - | 0 | 87 | 36 | 87 | 60 |
| 2026-08-20 1200Z | 163 | 5 | 60 | - | 0 | 85 | 33 | 86 | 60 |
| 2026-08-20 0600Z | 174 | 5 | 58 | - | 0 | 85 | 28 | 86 | 60 |
| 2026-08-20 0000Z | 159 | 6 | 60 | - | 0 | 86 | 36 | 87 | 54 |
| 2026-08-19 1800Z | 132 | 7 | 60 | - | 0 | 86 | 33 | 85 | 60 |
| 2026-08-19 1200Z | 18 | 4 | 60 | - | 0 | 82 | 39 | 83 | 60 |
| 2026-08-19 0600Z | 324 | 4 | 60 | - | 0 | 83 | 37 | 83 | 60 |
| 2026-08-19 0000Z | 208 | 8 | 60 | - | 0 | 86 | 37 | 85 | 57 |
| 2026-08-18 1800Z | 223 | 5 | 60 | - | 0 | 90 | 30 | 83 | 57 |
| 2026-08-18 1200Z | 293 | 6 | 60 | - | 0 | 85 | 36 | 83 | 60 |
| 2026-08-18 0600Z | 235 | 8 | 60 | - | 0 | 85 | 36 | 84 | 57 |
| 2026-08-18 0000Z | 211 | 13 | 60 | - | 0 | 85 | 33 | 84 | 54 |
| 2026-08-17 1800Z | 195 | 9 | 60 | - | 0 | 85 | 33 | 84 | 60 |
| 2026-08-17 1200Z | 251 | 5 | 60 | - | 0 | 82 | 36 | 83 | 60 |
| 2026-08-17 0600Z | 270 | 3 | 60 | - | 0 | 79 | 45 | 83 | 60 |
| 2026-08-17 0000Z | 175 | 1 | 60 | - | 0 | 81 | 39 | 85 | 60 |
| 2026-08-16 1800Z | 147 | 6 | 60 | - | 0 | 85 | 34 | 84 | 60 |
| 2026-08-16 1200Z | 337 | 1 | 60 | - | 0 | 81 | 45 | 82 | 60 |
| 2026-08-16 0600Z | 284 | 1 | 60 | - | 0 | 80 | 39 | 82 | 60 |
| 2026-08-16 0000Z | 272 | 2 | 57 | - | 0 | 81 | 42 | 83 | 57 |
| 2026-08-15 1800Z | 202 | 6 | 60 | - | 0 | 83 | 45 | 84 | 60 |
| 2026-08-15 1200Z | 244 | 3 | 60 | - | 0 | 82 | 36 | 83 | 60 |
| 2026-08-15 0600Z | 242 | 6 | 60 | - | 0 | 83 | 36 | 84 | 60 |
| 2026-08-15 0000Z | 202 | 15 | 60 | - | 0 | 84 | 39 | 84 | 60 |
| 2026-08-14 1800Z | 189 | 11 | 60 | - | 0 | 83 | 39 | 83 | 60 |
| 2026-08-14 1200Z | 227 | 4 | 60 | - | 0 | 80 | 42 | 82 | 60 |
| 2026-08-14 0600Z | 248 | 4 | 60 | - | 0 | 80 | 42 | 83 | 60 |
| 2026-08-14 0000Z | 221 | 11 | 60 | - | 0 | 86 | 42 | 84 | 60 |
| 2026-08-13 1800Z | 195 | 10 | 60 | - | 0 | 85 | 42 | 84 | 60 |
| 2026-08-13 1200Z | 242 | 4 | 60 | - | 0 | 83 | 42 | 82 | 60 |
| 2026-08-13 0600Z | 279 | 3 | 60 | - | 0 | 82 | 42 | 83 | 60 |
| 2026-08-13 0000Z | 201 | 4 | 60 | - | 0 | 86 | 49 | 84 | 60 |
| 2026-08-12 1800Z | 230 | 5 | 60 | - | 0 | 86 | 46 | 83 | 60 |
| 2026-08-12 1200Z | 262 | 4 | 60 | - | 0 | 77 | 42 | 83 | 58 |
| 2026-08-12 0600Z | 312 | 3 | 60 | - | 0 | 77 | 44 | 83 | 60 |
| 2026-08-12 0000Z | 231 | 10 | 60 | - | 0 | 86 | 41 | 84 | 60 |
| 2026-08-11 1800Z | 200 | 9 | 59 | - | 0 | 86 | 44 | 84 | 60 |
| 2026-08-11 1200Z | 263 | 6 | 59 | - | 0 | 78 | 41 | 83 | 60 |
| 2026-08-11 0600Z | 250 | 7 | 60 | - | 0 | 77 | 42 | 83 | 60 |
| 2026-08-11 0000Z | 255 | 5 | 60 | - | 0 | 78 | 42 | 84 | 57 |
| 2026-08-10 1800Z | 216 | 10 | 60 | - | 0 | 84 | 28 | 84 | 60 |
| 2026-08-10 1200Z | 254 | 7 | 60 | - | 0 | 82 | 45 | 84 | 60 |
| 2026-08-10 0600Z | 234 | 8 | 58 | - | 0 | 81 | 57 | 84 | 60 |
| 2026-08-10 0000Z | 203 | 16 | 60 | - | 0 | 83 | 51 | 84 | 60 |
| 2026-08-09 1800Z | 189 | 12 | 60 | - | 0 | 84 | 48 | 84 | 60 |
| 2026-08-09 1200Z | 273 | 5 | 60 | - | 0 | 80 | 42 | 84 | 60 |
| 2026-08-09 0600Z | 228 | 8 | 60 | - | 0 | 80 | 49 | 84 | 60 |
| 2026-08-09 0000Z | 204 | 7 | 59 | - | 0 | 81 | 48 | 86 | 59 |
| 2026-08-08 1800Z | 150 | 7 | 60 | - | 0 | 83 | 54 | 85 | 60 |
| 2026-08-08 1200Z | 153 | 3 | 60 | - | 0 | 83 | 51 | 84 | 60 |
| 2026-08-08 0600Z | 180 | 8 | 60 | - | 0 | 83 | 48 | 84 | 60 |
| 2026-08-08 0000Z | 177 | 11 | 60 | - | 0 | 84 | 42 | 86 | 60 |
| 2026-08-07 1800Z | 175 | 9 | 57 | - | 0 | 84 | 40 | 85 | 60 |
| 2026-08-07 1200Z | 160 | 3 | 60 | - | 0 | 82 | 30 | 84 | 57 |
| 2026-08-07 0600Z | 201 | 5 | 60 | - | 0 | 82 | 48 | 84 | 60 |
| 2026-08-07 0000Z | 183 | 9 | 57 | - | 0 | 83 | 48 | 85 | 60 |
| 2026-08-06 1800Z | 181 | 8 | 60 | - | 0 | 83 | 39 | 85 | 60 |
| 2026-08-06 1200Z | 166 | 3 | 60 | - | 0 | 82 | 45 | 84 | 60 |
| 2026-08-06 0600Z | 196 | 9 | 60 | - | 0 | 82 | 51 | 84 | 60 |
| 2026-08-06 0000Z | 175 | 9 | 60 | - | 0 | 82 | 54 | 84 | 60 |
| 2026-08-05 1800Z | 186 | 9 | 60 | - | 0 | 80 | 36 | 84 | 60 |
| 2026-08-05 1200Z | 175 | 5 | 58 | - | 0 | 77 | 45 | 84 | 58 |
| 2026-08-05 0600Z | 196 | 8 | 55 | - | 0 | 79 | 34 | 84 | 52 |
| 2026-08-05 0000Z | 180 | 11 | 58 | - | 0 | 82 | 43 | 85 | 55 |
| 2026-08-04 1800Z | 160 | 10 | 60 | - | 0 | 79 | 42 | 84 | 60 |
| 2026-08-04 1200Z | 323 | 1 | 60 | - | 0 | 78 | 33 | 84 | 60 |
| 2026-08-04 0600Z | 189 | 10 | 60 | - | 0 | 80 | 48 | 84 | 60 |
| 2026-08-04 0000Z | 216 | 5 | 57 | - | 0 | 78 | 39 | 85 | 60 |
| 2026-08-03 1800Z | 198 | 13 | 60 | - | 0 | 82 | 42 | 85 | 60 |
| 2026-08-03 1200Z | 214 | 9 | 60 | - | 0 | 79 | 45 | 84 | 58 |
| 2026-08-03 0600Z | 196 | 18 | 60 | - | 0 | 81 | 45 | 85 | 60 |
| 2026-08-03 0000Z | 200 | 19 | 56 | - | 0 | 81 | 41 | 85 | 55 |
| 2026-08-02 1800Z | 207 | 18 | 60 | - | 0 | 81 | 45 | 85 | 60 |
| 2026-08-02 1200Z | 210 | 14 | 60 | - | 0 | 82 | 48 | 85 | 60 |
| 2026-08-02 0600Z | 187 | 14 | 60 | - | 0 | 83 | 51 | 86 | 60 |
| 2026-08-02 0000Z | 144 | 13 | 60 | - | 0 | 84 | 54 | 86 | 60 |
| 2026-08-01 1800Z | 134 | 14 | 60 | - | 0 | 85 | 39 | 86 | 60 |
| 2026-08-01 1200Z | 155 | 13 | 55 | - | 0 | 84 | 38 | 85 | 60 |
| 2026-08-01 0600Z | 164 | 15 | 60 | - | 0 | 84 | 57 | 86 | 60 |
| 2026-08-01 0000Z | 170 | 13 | 50 | - | 0 | 84 | 47 | 86 | 48 |
| 2026-07-31 1800Z | 152 | 9 | 60 | - | 0 | 83 | 45 | 86 | 60 |
| 2026-07-31 1200Z | 331 | 3 | 60 | - | 0 | 79 | 42 | 84 | 60 |
| 2026-07-31 0600Z | 286 | 2 | 60 | - | 0 | 80 | 55 | 86 | 60 |
| 2026-07-31 0000Z | 164 | 5 | 60 | - | 0 | 83 | 48 | 86 | 60 |
| 2026-07-30 1800Z | 125 | 6 | 60 | - | 0 | 83 | 36 | 85 | 57 |
| 2026-07-30 1200Z | 352 | 7 | 60 | - | 0 | 76 | 48 | 84 | 60 |
| 2026-07-30 0600Z | 356 | 5 | 60 | - | 0 | 81 | 51 | 85 | 60 |
| 2026-07-30 0000Z | 209 | 8 | 52 | - | 0 | 85 | 42 | 86 | 52 |
| 2026-07-29 1800Z | 168 | 6 | 60 | - | 0 | 86 | 48 | 85 | 60 |
| 2026-07-29 1200Z | 318 | 5 | 60 | - | 0 | 82 | 48 | 84 | 60 |
| 2026-07-29 0600Z | 241 | 9 | 60 | - | 0 | 85 | 54 | 85 | 60 |
| 2026-07-29 0000Z | 209 | 19 | 60 | - | 0 | 85 | 45 | 85 | 57 |
| 2026-07-28 1800Z | 195 | 13 | 60 | - | 0 | 85 | 42 | 85 | 60 |
| 2026-07-28 1200Z | 241 | 6 | 60 | - | 0 | 81 | 48 | 84 | 60 |
| 2026-07-28 0600Z | 236 | 6 | 60 | - | 0 | 81 | 51 | 85 | 60 |
| 2026-07-28 0000Z | 199 | 8 | 60 | - | 0 | 83 | 48 | 86 | 60 |
| 2026-07-27 1800Z | 142 | 5 | 60 | - | 0 | 83 | 48 | 85 | 60 |
| 2026-07-27 1200Z | 8 | 2 | 58 | - | 0 | 79 | 51 | 85 | 60 |
| 2026-07-27 0600Z | 107 | 2 | 60 | - | 0 | 80 | 60 | 85 | 60 |
| 2026-07-27 0000Z | 138 | 6 | 60 | - | 0 | 81 | 54 | 85 | 60 |
| 2026-07-26 1800Z | 113 | 5 | 60 | - | 0 | 79 | 54 | 85 | 60 |
| 2026-07-26 1200Z | 21 | 3 | 60 | - | 0 | 73 | 57 | 84 | 60 |
| 2026-07-26 0600Z | 15 | 5 | 60 | - | 0 | 75 | 57 | 84 | 60 |
| 2026-07-26 0000Z | 347 | 4 | 60 | - | 0 | 80 | 54 | 84 | 60 |
| 2026-07-25 1800Z | 295 | 4 | 60 | - | 0 | 79 | 48 | 84 | 60 |
| 2026-07-25 1200Z | 273 | 4 | 60 | - | 0 | 80 | 54 | 84 | 60 |
| 2026-07-25 0600Z | 240 | 2 | 60 | - | 0 | 79 | 54 | 84 | 60 |
| 2026-07-25 0000Z | 267 | 2 | 60 | - | 0 | 78 | 51 | 85 | 60 |
| 2026-07-24 1800Z | 177 | 4 | 60 | - | 0 | 81 | 51 | 85 | 60 |
| 2026-07-24 1200Z | 236 | 8 | 60 | - | 0 | 83 | 57 | 85 | 60 |
| 2026-07-24 0600Z | 207 | 12 | 60 | - | 0 | 84 | 51 | 85 | 60 |
| 2026-07-24 0000Z | 187 | 15 | 57 | - | 0 | 84 | 54 | 85 | 57 |
| 2026-07-23 1800Z | 193 | 12 | 60 | - | 0 | 85 | 51 | 85 | 60 |
| 2026-07-23 1200Z | 225 | 11 | 60 | - | 0 | 84 | 54 | 84 | 57 |
| 2026-07-23 0600Z | 212 | 18 | 60 | - | 0 | 84 | 51 | 85 | 60 |
| 2026-07-23 0000Z | 202 | 22 | 60 | - | 0 | 84 | 46 | 86 | 60 |
| 2026-07-22 1800Z | 200 | 18 | 60 | - | 0 | 84 | 39 | 85 | 60 |
| 2026-07-22 1200Z | 219 | 14 | 60 | - | 0 | 84 | 36 | 85 | 60 |
| 2026-07-22 0600Z | 211 | 21 | 60 | - | 0 | 84 | 51 | 86 | 60 |
| 2026-07-22 0000Z | 201 | 25 | 58 | - | 0 | 85 | 42 | 86 | 58 |
| 2026-07-21 1800Z | 195 | 20 | 60 | - | 0 | 85 | 30 | 86 | 60 |
| 2026-07-21 1200Z | 215 | 13 | 56 | - | 0 | 84 | 34 | 86 | 53 |
| 2026-07-21 0600Z | 211 | 18 | 60 | - | 0 | 84 | 39 | 87 | 60 |
| 2026-07-21 0000Z | 200 | 21 | 60 | - | 0 | 85 | 39 | 87 | 57 |
| 2026-07-20 1800Z | 191 | 16 | 60 | - | 0 | 85 | 36 | 87 | 60 |
| 2026-07-20 1200Z | 236 | 10 | 60 | - | 0 | 83 | 30 | 86 | 60 |
| 2026-07-20 0600Z | 233 | 12 | 60 | - | 0 | 83 | 42 | 87 | 60 |
| 2026-07-20 0000Z | 207 | 23 | 60 | - | 0 | 85 | 42 | 87 | 57 |
| 2026-07-19 1800Z | 205 | 20 | 59 | - | 0 | 87 | 42 | 87 | 60 |
| 2026-07-19 1200Z | 237 | 12 | 60 | - | 0 | 85 | 36 | 86 | 57 |
| 2026-07-19 0600Z | 226 | 15 | 60 | - | 0 | 84 | 36 | 87 | 60 |
| 2026-07-19 0000Z | 209 | 21 | 30 | - | 0 | 84 | 21 | 87 | 30 |
The six-hour averages are calculated as follows:
- The 0000Z average uses data from 2100Z to 0259Z.
- The 0600Z average uses data from 0300Z to 0859Z.
- The 1200Z average uses data from 0900Z to 1459Z.
- The 1800Z average uses data from 1500Z to 2059Z.
Display all available SAR data (up to 45 days)



